Time;durP1;ratioP1;P1;durP2;ratioP2;P2;SDS_P1;SDS_P2;PMS_P1;PMS_P2;Temp;Humidity;BMP_temperature;BMP_pressure;BME280_temperature;BME280_humidity;BME280_pressure;Samples;Min_cycle;Max_cycle;Signal;HPM_P1;HPM_P2
2023/08/04 00:01:25;;;;;;;0.70;0.70;;;13.30;99.90;;;;;;5053615;28;20547;-70
2023/08/04 00:03:52;;;;;;;0.67;0.60;;;13.20;99.90;;;;;;5054966;28;20175;-69
2023/08/04 00:06:18;;;;;;;0.40;0.40;;;13.40;99.90;;;;;;5055004;28;20228;-69
2023/08/04 00:08:44;;;;;;;0.37;0.37;;;13.50;99.90;;;;;;5055052;28;20412;-71
2023/08/04 00:11:10;;;;;;;0.40;0.40;;;13.60;99.90;;;;;;5054601;28;20240;-70
2023/08/04 00:13:35;;;;;;;0.50;0.50;;;13.70;99.90;;;;;;5055003;28;20170;-69
2023/08/04 00:16:08;;;;;;;0.30;0.30;;;13.70;99.90;;;;;;5054961;28;20458;-70
2023/08/04 00:18:34;;;;;;;3.80;1.23;;;13.70;99.90;;;;;;5054803;28;20166;-71
2023/08/04 00:21:00;;;;;;;1.57;1.47;;;13.80;99.90;;;;;;5054498;28;20485;-70
2023/08/04 00:23:26;;;;;;;0.73;0.73;;;13.80;99.90;;;;;;5054649;28;20419;-69
2023/08/04 00:25:51;;;;;;;0.30;0.30;;;13.90;99.90;;;;;;5054707;28;20182;-70
2023/08/04 00:28:17;;;;;;;0.30;0.30;;;14.20;99.90;;;;;;5054771;28;20174;-70
2023/08/04 00:30:43;;;;;;;0.40;0.40;;;14.00;99.90;;;;;;5054331;28;20202;-70
2023/08/04 00:33:09;;;;;;;0.37;0.37;;;14.10;99.90;;;;;;5054532;28;20177;-70
2023/08/04 00:35:35;;;;;;;1.00;0.50;;;14.00;99.90;;;;;;5054483;28;20162;-70
2023/08/04 00:38:00;;;;;;;0.50;0.50;;;14.00;99.90;;;;;;5054589;28;20770;-70
2023/08/04 00:40:28;;;;;;;0.40;0.40;;;14.20;99.90;;;;;;5054471;28;20728;-71
2023/08/04 00:42:54;;;;;;;0.50;0.50;;;14.10;99.90;;;;;;5054299;28;20178;-71
2023/08/04 00:45:21;;;;;;;6.73;2.23;;;13.90;99.90;;;;;;5054377;28;20418;-69
2023/08/04 00:47:46;;;;;;;0.43;0.43;;;14.10;99.90;;;;;;5054208;28;20177;-70
2023/08/04 00:50:14;;;;;;;0.30;0.30;;;14.10;99.90;;;;;;5053931;28;20556;-69
2023/08/04 00:52:41;;;;;;;0.40;0.40;;;14.00;99.90;;;;;;5053897;28;20194;-70
2023/08/04 00:55:08;;;;;;;0.40;0.40;;;14.20;99.90;;;;;;5054219;28;20405;-70
2023/08/04 00:57:36;;;;;;;0.70;0.70;;;14.20;99.90;;;;;;5054186;28;20419;-70
2023/08/04 01:00:02;;;;;;;0.40;0.30;;;14.20;99.90;;;;;;5054115;28;20460;-69
2023/08/04 01:02:28;;;;;;;1.17;0.93;;;14.20;99.90;;;;;;5053809;28;20409;-70
2023/08/04 01:04:54;;;;;;;0.70;0.70;;;13.90;99.90;;;;;;5054069;28;20401;-69
2023/08/04 01:07:25;;;;;;;0.80;0.80;;;14.10;99.90;;;;;;5053878;28;20269;-70
2023/08/04 01:10:10;;;;;;;0.57;0.57;;;14.20;99.90;;;;;;5053831;28;20448;-71
2023/08/04 01:12:55;;;;;;;0.70;0.70;;;14.00;99.90;;;;;;5053654;28;20527;-70
2023/08/04 01:15:24;;;;;;;0.50;0.50;;;14.20;99.90;;;;;;5054043;28;20402;-69
2023/08/04 01:17:49;;;;;;;0.60;0.60;;;14.20;99.90;;;;;;5053728;28;20395;-69
2023/08/04 01:20:15;;;;;;;0.40;0.40;;;14.20;99.90;;;;;;5053645;28;20425;-71
2023/08/04 01:22:41;;;;;;;0.70;0.70;;;14.20;99.90;;;;;;5052946;28;20536;-68
2023/08/04 01:25:07;;;;;;;0.60;0.60;;;14.40;99.90;;;;;;5053990;28;20178;-70
2023/08/04 01:27:52;;;;;;;0.50;0.50;;;14.30;99.90;;;;;;5053598;28;20174;-70
2023/08/04 01:30:23;;;;;;;2.40;0.83;;;14.50;99.90;;;;;;5053570;28;20457;-70
2023/08/04 01:32:49;;;;;;;5.50;1.17;;;14.70;99.90;;;;;;5053507;28;20399;-70
2023/08/04 01:35:15;;;;;;;0.80;0.80;;;14.40;99.90;;;;;;5053432;28;20764;-69
2023/08/04 01:37:43;;;;;;;0.80;0.80;;;14.40;99.90;;;;;;5053357;28;20484;-69
2023/08/04 01:40:10;;;;;;;0.70;0.70;;;14.50;99.90;;;;;;5053358;28;20920;-70
2023/08/04 01:42:35;;;;;;;0.77;0.77;;;14.40;99.90;;;;;;5053203;28;20489;-70
2023/08/04 01:45:01;;;;;;;0.50;0.40;;;14.60;99.90;;;;;;5053494;28;20499;-69
2023/08/04 01:47:27;;;;;;;3.17;1.13;;;14.50;99.90;;;;;;5053406;28;20222;-70
2023/08/04 01:49:52;;;;;;;0.40;0.40;;;14.40;99.90;;;;;;5052964;28;20304;-69
2023/08/04 01:52:18;;;;;;;0.40;0.40;;;14.40;99.90;;;;;;5053052;28;20175;-69
2023/08/04 01:54:43;;;;;;;0.40;0.40;;;14.50;99.90;;;;;;5053405;28;20530;-70
2023/08/04 01:57:09;;;;;;;0.50;0.50;;;14.80;99.90;;;;;;5053265;28;20172;-70
2023/08/04 01:59:35;;;;;;;0.40;0.40;;;14.90;99.90;;;;;;5053312;28;20649;-70
2023/08/04 02:02:00;;;;;;;0.40;0.40;;;14.70;99.90;;;;;;5053034;28;20171;-69
2023/08/04 02:04:26;;;;;;;0.40;0.40;;;14.70;99.90;;;;;;5053196;28;20245;-70
2023/08/04 02:06:51;;;;;;;0.70;0.70;;;14.60;99.90;;;;;;5053067;28;20177;-70
2023/08/04 02:09:17;;;;;;;3.40;1.47;;;14.70;99.90;;;;;;5053095;28;20638;-70
2023/08/04 02:11:43;;;;;;;0.40;0.40;;;14.50;99.90;;;;;;5052752;28;20703;-70
2023/08/04 02:14:09;;;;;;;0.50;0.50;;;14.60;99.90;;;;;;5053137;28;20183;-70
2023/08/04 02:16:35;;;;;;;2.00;0.50;;;14.70;99.90;;;;;;5053252;28;20576;-70
2023/08/04 02:19:03;;;;;;;0.70;0.70;;;14.80;99.90;;;;;;5053207;28;20431;-70
2023/08/04 02:21:28;;;;;;;6.67;0.53;;;14.50;99.90;;;;;;5052794;28;20235;-69
2023/08/04 02:23:54;;;;;;;0.40;0.40;;;14.70;99.90;;;;;;5053030;28;20450;-70
2023/08/04 02:26:20;;;;;;;0.93;0.83;;;14.70;99.90;;;;;;5053014;28;20228;-71
2023/08/04 02:28:45;;;;;;;0.53;0.43;;;14.80;99.90;;;;;;5053038;28;20224;-70
2023/08/04 02:31:11;;;;;;;0.50;0.50;;;14.40;99.90;;;;;;5052639;28;20198;-69
2023/08/04 02:33:37;;;;;;;1.13;1.03;;;14.70;99.90;;;;;;5052830;28;20174;-70
2023/08/04 02:36:03;;;;;;;0.40;0.40;;;14.70;99.90;;;;;;5055379;28;20177;-70
2023/08/04 02:38:28;;;;;;;0.40;0.40;;;14.80;99.90;;;;;;5056655;28;20201;-69
2023/08/04 02:41:00;;;;;;;0.40;0.40;;;15.00;99.90;;;;;;5056480;28;20474;-71
2023/08/04 02:43:26;;;;;;;0.63;0.63;;;15.10;99.90;;;;;;5056806;28;20259;-71
2023/08/04 02:45:52;;;;;;;0.70;0.70;;;14.90;99.90;;;;;;5056580;28;20502;-70
2023/08/04 02:48:17;;;;;;;0.50;0.50;;;15.00;99.90;;;;;;5056872;28;20169;-70
2023/08/04 02:50:43;;;;;;;0.73;0.73;;;15.00;99.90;;;;;;5056079;28;20260;-70
2023/08/04 02:53:09;;;;;;;0.40;0.40;;;15.30;99.90;;;;;;5056608;28;20173;-69
2023/08/04 02:55:35;;;;;;;0.60;0.60;;;15.00;99.90;;;;;;5056788;28;20480;-69
2023/08/04 02:58:00;;;;;;;0.77;0.67;;;15.10;99.90;;;;;;5056485;28;20180;-69
2023/08/04 03:00:26;;;;;;;0.50;0.50;;;15.10;99.90;;;;;;5056280;28;20194;-71
2023/08/04 03:02:52;;;;;;;2.00;0.60;;;15.10;99.90;;;;;;5056015;28;20265;-70
2023/08/04 03:05:17;;;;;;;0.30;0.30;;;15.10;99.90;;;;;;5056183;28;20174;-70
2023/08/04 03:07:43;;;;;;;0.30;0.30;;;15.00;99.90;;;;;;5056209;28;20566;-71
2023/08/04 03:10:09;;;;;;;0.30;0.30;;;15.10;99.90;;;;;;5055972;28;20209;-69
2023/08/04 03:12:35;;;;;;;0.57;0.57;;;15.00;99.90;;;;;;5056023;28;20205;-70
2023/08/04 03:15:02;;;;;;;1.60;1.23;;;14.90;99.90;;;;;;5056136;28;20400;-69
2023/08/04 03:17:28;;;;;;;0.40;0.40;;;14.80;99.90;;;;;;5055937;28;20185;-70
2023/08/04 03:19:54;;;;;;;1.60;1.50;;;14.80;99.90;;;;;;5055849;28;20921;-70
2023/08/04 03:22:19;;;;;;;0.30;0.30;;;14.50;99.90;;;;;;5055408;28;20419;-71
2023/08/04 03:24:45;;;;;;;0.50;0.50;;;14.70;99.90;;;;;;5055889;28;20178;-71
2023/08/04 03:27:11;;;;;;;0.40;0.40;;;14.90;99.90;;;;;;5055909;28;20176;-69
2023/08/04 03:29:36;;;;;;;0.50;0.50;;;14.70;99.90;;;;;;5056007;28;20668;-69
2023/08/04 03:32:03;;;;;;;1.03;0.70;;;14.70;99.90;;;;;;5055597;28;20180;-70
2023/08/04 03:34:28;;;;;;;0.40;0.40;;;14.70;99.90;;;;;;5055620;28;20166;-70
2023/08/04 03:36:54;;;;;;;0.73;0.73;;;14.70;99.90;;;;;;5055607;28;20769;-69
2023/08/04 03:39:20;;;;;;;0.40;0.40;;;;;;;;;;5055638;28;20654;-69
2023/08/04 03:41:46;;;;;;;5.40;0.67;;;14.80;99.90;;;;;;5055302;28;20183;-70
2023/08/04 03:44:12;;;;;;;0.50;0.40;;;14.80;99.90;;;;;;5055847;28;20761;-70
2023/08/04 03:46:37;;;;;;;0.90;0.80;;;14.80;99.90;;;;;;5055065;28;20219;-70
2023/08/04 03:49:03;;;;;;;0.40;0.40;;;14.90;99.90;;;;;;5055605;28;20579;-70
2023/08/04 03:51:28;;;;;;;0.30;0.30;;;14.90;99.90;;;;;;5055171;28;20197;-70
2023/08/04 03:53:54;;;;;;;0.30;0.30;;;14.90;99.90;;;;;;5055470;28;20174;-70
2023/08/04 03:56:20;;;;;;;0.57;0.50;;;14.90;99.90;;;;;;5055433;28;20640;-69
2023/08/04 03:58:45;;;;;;;0.37;0.37;;;14.90;99.90;;;;;;5055169;28;20173;-70
2023/08/04 04:01:11;;;;;;;0.70;0.60;;;14.40;99.90;;;;;;5054928;28;20212;-71
2023/08/04 04:03:36;;;;;;;0.40;0.40;;;14.70;99.90;;;;;;5055200;28;20191;-70
2023/08/04 04:06:02;;;;;;;0.50;0.50;;;14.50;99.90;;;;;;5055117;28;20643;-70
2023/08/04 04:08:28;;;;;;;0.30;0.30;;;14.70;99.90;;;;;;5055220;28;20205;-70
2023/08/04 04:10:55;;;;;;;0.90;0.90;;;14.70;99.90;;;;;;5054786;28;20209;-70
2023/08/04 04:13:22;;;;;;;0.30;0.30;;;14.80;99.90;;;;;;5054968;28;20170;-70
2023/08/04 04:15:47;;;;;;;0.43;0.43;;;14.90;99.90;;;;;;5055098;28;20408;-70
2023/08/04 04:18:13;;;;;;;0.47;0.47;;;14.90;99.90;;;;;;5055134;28;20906;-69
2023/08/04 04:20:38;;;;;;;0.50;0.50;;;15.00;99.90;;;;;;5054779;28;20198;-69
2023/08/04 04:23:04;;;;;;;23.23;0.80;;;15.00;99.90;;;;;;5054874;28;20188;-70
2023/08/04 04:25:30;;;;;;;0.47;0.47;;;15.00;99.90;;;;;;5055381;28;20197;-69
2023/08/04 04:27:55;;;;;;;0.60;0.60;;;15.00;99.90;;;;;;5054859;28;20178;-71
2023/08/04 04:30:21;;;;;;;0.40;0.40;;;15.00;99.90;;;;;;5054417;28;20252;-70
2023/08/04 04:32:46;;;;;;;0.50;0.50;;;14.90;99.90;;;;;;5054466;28;20530;-69
2023/08/04 04:35:12;;;;;;;0.40;0.40;;;14.90;99.90;;;;;;5054657;28;20207;-69
2023/08/04 04:37:38;;;;;;;0.80;0.80;;;15.00;99.90;;;;;;5054577;28;20170;-70
2023/08/04 04:40:04;;;;;;;0.40;0.40;;;15.00;99.90;;;;;;5054453;28;20204;-69
2023/08/04 04:42:32;;;;;;;0.50;0.50;;;15.00;99.90;;;;;;5054212;28;20233;-70
2023/08/04 04:44:57;;;;;;;0.60;0.60;;;15.00;99.90;;;;;;5054290;28;20772;-70
2023/08/04 04:47:23;;;;;;;1.60;0.90;;;15.00;99.90;;;;;;5054299;28;20404;-70
2023/08/04 04:49:49;;;;;;;0.40;0.40;;;15.00;99.90;;;;;;5053981;28;20206;-71
2023/08/04 04:52:33;;;;;;;0.40;0.40;;;15.10;99.90;;;;;;5053952;28;20175;-71
2023/08/04 04:55:00;;;;;;;0.30;0.30;;;15.00;99.90;;;;;;5054158;28;20277;-71
2023/08/04 04:57:26;;;;;;;0.40;0.40;;;15.00;99.90;;;;;;5053407;28;20393;-70
2023/08/04 04:59:52;;;;;;;0.40;0.40;;;15.00;99.90;;;;;;5054040;28;20908;-70
2023/08/04 05:02:18;;;;;;;0.93;0.93;;;14.90;99.90;;;;;;5053933;28;20407;-70
2023/08/04 05:04:44;;;;;;;0.40;0.40;;;15.00;99.90;;;;;;5053975;28;20171;-70
2023/08/04 05:07:10;;;;;;;0.40;0.30;;;15.00;99.90;;;;;;5053882;28;20249;-70
2023/08/04 05:09:35;;;;;;;0.30;0.30;;;15.00;99.90;;;;;;5053811;28;20435;-71
2023/08/04 05:12:01;;;;;;;0.80;0.60;;;15.10;99.90;;;;;;5053837;28;20610;-71
2023/08/04 05:14:27;;;;;;;0.30;0.30;;;14.90;99.90;;;;;;5053727;28;20634;-71
2023/08/04 05:16:52;;;;;;;0.30;0.30;;;15.10;99.90;;;;;;5053851;28;20504;-70
2023/08/04 05:19:18;;;;;;;0.87;0.80;;;15.10;99.90;;;;;;5053830;28;20245;-70
2023/08/04 05:21:43;;;;;;;0.50;0.50;;;15.10;99.90;;;;;;5053342;28;20186;-70
2023/08/04 05:24:09;;;;;;;0.80;0.40;;;15.00;99.90;;;;;;5053598;28;20662;-69
2023/08/04 05:26:35;;;;;;;0.40;0.40;;;15.00;99.90;;;;;;5053621;28;20177;-70
2023/08/04 05:29:00;;;;;;;0.40;0.40;;;15.00;99.90;;;;;;5053704;28;20171;-70
2023/08/04 05:31:26;;;;;;;0.80;0.50;;;15.10;99.90;;;;;;5053180;28;20193;-69
2023/08/04 05:33:51;;;;;;;0.40;0.40;;;15.20;99.90;;;;;;5053614;28;20169;-70
2023/08/04 05:36:17;;;;;;;0.50;0.50;;;15.30;99.90;;;;;;5053506;28;20169;-70
2023/08/04 05:38:44;;;;;;;5.73;0.83;;;15.50;99.90;;;;;;5053617;28;20634;-69
2023/08/04 05:41:09;;;;;;;0.47;0.47;;;15.40;99.90;;;;;;5053168;28;20182;-69
2023/08/04 05:43:35;;;;;;;0.40;0.40;;;15.50;99.90;;;;;;5053395;28;20406;-70
2023/08/04 05:46:02;;;;;;;0.70;0.70;;;15.60;99.90;;;;;;5053389;28;20170;-69
2023/08/04 05:48:29;;;;;;;0.30;0.30;;;15.80;99.90;;;;;;5053325;28;20174;-70
2023/08/04 05:50:55;;;;;;;0.63;0.60;;;15.80;99.90;;;;;;5052752;28;20460;-69
2023/08/04 05:53:21;;;;;;;0.40;0.40;;;15.90;99.90;;;;;;5053253;28;20732;-71
2023/08/04 05:55:46;;;;;;;0.47;0.47;;;16.00;99.90;;;;;;5053266;28;20166;-71
2023/08/04 05:58:12;;;;;;;0.30;0.30;;;16.30;99.90;;;;;;5053503;28;20170;-70
2023/08/04 06:00:38;;;;;;;0.63;0.40;;;16.30;99.90;;;;;;5052989;28;20191;-71
2023/08/04 06:03:06;;;;;;;0.80;0.40;;;16.20;99.90;;;;;;5053288;28;20239;-71
2023/08/04 06:05:32;;;;;;;0.97;0.80;;;16.40;99.90;;;;;;5053149;28;20170;-69
2023/08/04 06:07:58;;;;;;;0.60;0.60;;;16.50;99.90;;;;;;5053129;28;20468;-70
2023/08/04 06:10:24;;;;;;;0.30;0.30;;;16.60;99.90;;;;;;5056466;28;20701;-70
2023/08/04 06:12:50;;;;;;;0.40;0.40;;;16.60;99.90;;;;;;5057104;28;20169;-70
2023/08/04 06:15:16;;;;;;;0.40;0.40;;;16.90;99.90;;;;;;5057039;28;20776;-69
2023/08/04 06:17:43;;;;;;;0.40;0.40;;;16.70;99.90;;;;;;5057286;28;20509;-71
2023/08/04 06:20:10;;;;;;;4.13;0.70;;;16.70;99.90;;;;;;5057120;28;20507;-69
2023/08/04 06:22:36;;;;;;;0.40;0.40;;;16.60;99.90;;;;;;5056827;28;20488;-71
2023/08/04 06:25:03;;;;;;;0.37;0.37;;;16.80;99.90;;;;;;5057286;28;20400;-70
2023/08/04 06:27:29;;;;;;;0.30;0.30;;;16.80;99.90;;;;;;5057017;28;20758;-69
2023/08/04 06:29:55;;;;;;;0.40;0.40;;;;;;;;;;5056695;28;20432;-69
2023/08/04 06:32:21;;;;;;;0.83;0.83;;;16.60;99.90;;;;;;5056619;28;20242;-70
2023/08/04 06:34:46;;;;;;;0.30;0.30;;;16.50;99.90;;;;;;5056773;28;20464;-71
2023/08/04 06:37:12;;;;;;;0.50;0.50;;;16.50;99.90;;;;;;5056625;28;20167;-71
2023/08/04 06:39:38;;;;;;;0.30;0.30;;;16.30;99.90;;;;;;5056664;28;20177;-69
2023/08/04 06:42:04;;;;;;;0.40;0.40;;;16.30;99.90;;;;;;5056589;28;20174;-71
2023/08/04 06:44:30;;;;;;;0.40;0.40;;;16.30;99.90;;;;;;5055868;28;20257;-70
2023/08/04 06:46:55;;;;;;;0.40;0.40;;;16.10;99.90;;;;;;5056331;28;20499;-70
2023/08/04 06:49:22;;;;;;;0.47;0.47;;;;;;;;;;5056508;28;20504;-71
2023/08/04 06:51:49;;;;;;;0.30;0.30;;;17.60;99.90;;;;;;5056406;28;20226;-70
2023/08/04 06:54:15;;;;;;;0.73;0.73;;;16.50;99.90;;;;;;5055724;28;20408;-71
2023/08/04 06:56:41;;;;;;;0.80;0.80;;;16.80;99.90;;;;;;5056396;28;20803;-71
2023/08/04 06:59:07;;;;;;;0.30;0.30;;;17.30;99.90;;;;;;5056734;28;20397;-71
2023/08/04 07:01:32;;;;;;;0.43;0.43;;;17.10;99.90;;;;;;5054793;28;20345;-70
2023/08/04 07:03:58;;;;;;;0.37;0.37;;;;;;;;;;5055463;28;20654;-71
2023/08/04 07:06:24;;;;;;;0.40;0.40;;;17.80;99.90;;;;;;5053982;28;20171;-71
2023/08/04 07:08:49;;;;;;;0.47;0.47;;;17.90;99.90;;;;;;5054700;28;20464;-70
2023/08/04 07:11:17;;;;;;;0.37;0.37;;;17.90;99.90;;;;;;5054333;28;20675;-71
2023/08/04 07:13:44;;;;;;;0.97;0.97;;;18.00;99.30;;;;;;5054601;28;20176;-71
2023/08/04 07:16:12;;;;;;;0.30;0.30;;;17.40;99.90;;;;;;5054416;28;20421;-69
2023/08/04 07:18:38;;;;;;;0.40;0.40;;;17.70;99.90;;;;;;5054840;28;20736;-70
2023/08/04 07:21:09;;;;;;;0.30;0.30;;;17.60;99.90;;;;;;5054430;28;20439;-71
2023/08/04 07:23:35;;;;;;;0.50;0.50;;;;;;;;;;5055897;28;20419;-71
2023/08/04 07:26:03;;;;;;;0.40;0.40;;;17.70;99.90;;;;;;5055941;28;20400;-71
2023/08/04 07:28:30;;;;;;;0.50;0.50;;;17.80;99.90;;;;;;5055937;28;20421;-70
2023/08/04 07:30:56;;;;;;;0.30;0.30;;;18.10;99.90;;;;;;5055282;28;20538;-70
2023/08/04 07:33:23;;;;;;;0.40;0.40;;;18.30;99.30;;;;;;5055701;28;20740;-71
2023/08/04 07:35:55;;;;;;;0.43;0.40;;;18.30;98.90;;;;;;5055798;28;20406;-71
2023/08/04 07:38:22;;;;;;;0.40;0.40;;;18.50;99.20;;;;;;5055676;28;20897;-71
2023/08/04 07:40:48;;;;;;;0.30;0.30;;;18.60;99.10;;;;;;5055241;28;20438;-71
2023/08/04 07:43:14;;;;;;;0.60;0.47;;;18.70;98.50;;;;;;5055671;28;20495;-71
2023/08/04 07:45:40;;;;;;;0.80;0.80;;;18.50;98.30;;;;;;5055402;28;20198;-70
2023/08/04 07:48:05;;;;;;;0.47;0.40;;;18.40;99.10;;;;;;5055439;28;20542;-71
2023/08/04 07:50:31;;;;;;;0.60;0.40;;;18.20;98.50;;;;;;5055165;28;20553;-71
2023/08/04 07:52:57;;;;;;;0.30;0.30;;;18.50;99.90;;;;;;5055287;28;20177;-71
2023/08/04 07:55:22;;;;;;;0.30;0.30;;;18.50;97.30;;;;;;5055217;28;20407;-70
2023/08/04 07:57:48;;;;;;;0.40;0.40;;;18.80;98.10;;;;;;5055428;28;20171;-70
2023/08/04 08:00:14;;;;;;;0.40;0.40;;;19.00;97.60;;;;;;5055085;28;20197;-70
2023/08/04 08:02:40;;;;;;;0.47;0.47;;;19.20;97.10;;;;;;5055008;28;20166;-70
2023/08/04 08:05:07;;;;;;;0.80;0.50;;;19.40;97.20;;;;;;5055135;28;20424;-70
2023/08/04 08:07:36;;;;;;;0.40;0.40;;;19.60;96.90;;;;;;5055146;28;20516;-71
2023/08/04 08:10:02;;;;;;;0.30;0.30;;;20.10;97.00;;;;;;5054357;28;20468;-69
2023/08/04 08:12:28;;;;;;;0.30;0.30;;;20.20;95.10;;;;;;5054825;28;20455;-71
2023/08/04 08:14:54;;;;;;;0.50;0.50;;;20.00;94.40;;;;;;5054322;28;20491;-72
2023/08/04 08:17:19;;;;;;;0.40;0.40;;;20.00;95.10;;;;;;5055151;28;20499;-69
2023/08/04 08:19:45;;;;;;;0.40;0.40;;;20.30;99.90;;;;;;5055042;28;20193;-70
2023/08/04 08:22:11;;;;;;;0.40;0.40;;;20.00;96.40;;;;;;5053499;28;20178;-72
2023/08/04 08:24:36;;;;;;;0.47;0.47;;;20.10;96.60;;;;;;5054583;28;20183;-72
2023/08/04 08:27:02;;;;;;;0.40;0.40;;;20.20;95.10;;;;;;5054762;28;20525;-71
2023/08/04 08:29:27;;;;;;;0.40;0.40;;;20.50;99.90;;;;;;5054487;28;20187;-72
2023/08/04 08:31:53;;;;;;;0.40;0.40;;;20.40;94.90;;;;;;5053902;28;20203;-72
2023/08/04 08:34:19;;;;;;;0.30;0.30;;;20.40;94.30;;;;;;5053915;28;20172;-73
2023/08/04 08:36:44;;;;;;;0.40;0.40;;;20.20;95.00;;;;;;5054571;28;20654;-73
2023/08/04 08:39:10;;;;;;;1.57;0.40;;;20.20;96.40;;;;;;5054425;28;20184;-73
2023/08/04 08:41:36;;;;;;;0.60;0.60;;;20.60;95.60;;;;;;5054028;28;20201;-71
2023/08/04 08:44:01;;;;;;;0.40;0.40;;;21.50;95.00;;;;;;5054342;28;20248;-72
2023/08/04 08:46:28;;;;;;;0.60;0.50;;;22.40;93.10;;;;;;5054223;28;20170;-73
2023/08/04 08:48:58;;;;;;;0.30;0.30;;;23.80;90.50;;;;;;5054326;28;20178;-73
2023/08/04 08:51:25;;;;;;;0.30;0.30;;;25.50;86.70;;;;;;5053927;28;20456;-73
2023/08/04 08:53:52;;;;;;;0.70;0.40;;;26.20;80.40;;;;;;5054112;28;20439;-73
2023/08/04 08:56:19;;;;;;;0.50;0.40;;;;;;;;;;5054212;28;20416;-72
2023/08/04 08:58:45;;;;;;;0.30;0.30;;;26.00;73.20;;;;;;5054077;28;20888;-73
2023/08/04 09:01:10;;;;;;;0.40;0.40;;;24.90;77.00;;;;;;5053745;28;20477;-73
2023/08/04 09:03:38;;;;;;;0.40;0.40;;;23.20;80.60;;;;;;5054345;28;20900;-71
2023/08/04 09:06:04;;;;;;;0.40;0.40;;;23.20;81.30;;;;;;5053992;28;20677;-72
2023/08/04 09:08:30;;;;;;;0.40;0.40;;;22.80;87.40;;;;;;5053822;28;20408;-73
2023/08/04 09:10:59;;;;;;;0.40;0.40;;;22.40;85.30;;;;;;5053474;28;20495;-73
2023/08/04 09:13:26;;;;;;;0.40;0.40;;;22.00;88.40;;;;;;5053767;28;20571;-72
2023/08/04 09:15:52;;;;;;;0.40;0.40;;;;;;;;;;5053783;28;20405;-72
2023/08/04 09:18:29;;;;;;;0.50;0.40;;;21.30;87.90;;;;;;5053777;28;20393;-71
2023/08/04 09:20:59;;;;;;;0.30;0.30;;;20.80;87.80;;;;;;5053337;28;20431;-71
2023/08/04 09:23:29;;;;;;;0.50;0.40;;;20.70;90.00;;;;;;5053754;28;20403;-71
2023/08/04 09:25:55;;;;;;;0.40;0.40;;;20.60;90.20;;;;;;5053655;28;20414;-72
2023/08/04 09:28:21;;;;;;;0.30;0.30;;;21.00;99.90;;;;;;5053587;28;20519;-71
2023/08/04 09:31:07;;;;;;;0.40;0.40;;;21.00;90.20;;;;;;5053209;28;20868;-73
2023/08/04 09:33:34;;;;;;;1.27;0.43;;;21.30;90.60;;;;;;5053621;28;20399;-71
2023/08/04 09:36:02;;;;;;;0.40;0.40;;;21.60;90.40;;;;;;5053362;28;20404;-71
2023/08/04 09:38:28;;;;;;;3.03;0.50;;;21.50;90.20;;;;;;5053574;28;20447;-73
2023/08/04 09:41:10;;;;;;;0.30;0.30;;;21.20;99.90;;;;;;5053076;28;20842;-72
2023/08/04 09:43:46;;;;;;;2.00;0.50;;;21.20;90.60;;;;;;5053174;28;20166;-73
2023/08/04 09:46:12;;;;;;;0.30;0.30;;;21.70;89.40;;;;;;5053506;28;20393;-73
2023/08/04 09:48:38;;;;;;;0.30;0.30;;;22.60;99.90;;;;;;5053270;28;20412;-73
2023/08/04 09:51:08;;;;;;;0.80;0.40;;;22.90;87.40;;;;;;5052920;28;20460;-73
2023/08/04 09:53:44;;;;;;;0.80;0.43;;;23.50;85.90;;;;;;5053273;28;20237;-73
2023/08/04 09:56:12;;;;;;;0.37;0.37;;;23.40;86.70;;;;;;5053410;28;20398;-72
2023/08/04 09:58:39;;;;;;;0.30;0.30;;;23.00;85.40;;;;;;5053373;28;20413;-72
2023/08/04 10:01:05;;;;;;;0.30;0.30;;;22.60;87.70;;;;;;5052892;28;20403;-72
2023/08/04 10:03:33;;;;;;;0.30;0.30;;;22.30;86.90;;;;;;5053382;28;20412;-72
2023/08/04 10:06:00;;;;;;;1.00;1.00;;;22.20;89.00;;;;;;5053161;28;20746;-72
2023/08/04 10:08:39;;;;;;;0.30;0.30;;;22.60;86.50;;;;;;5053175;28;20504;-72
2023/08/04 10:11:05;;;;;;;0.40;0.40;;;23.40;85.60;;;;;;5052871;28;20488;-71
2023/08/04 10:13:42;;;;;;;0.40;0.40;;;24.60;82.70;;;;;;5053223;28;20415;-73
2023/08/04 10:16:11;;;;;;;0.40;0.40;;;25.80;80.80;;;;;;5053237;28;20775;-72
2023/08/04 10:18:51;;;;;;;0.40;0.40;;;25.70;75.10;;;;;;5053078;28;20408;-73
2023/08/04 10:21:25;;;;;;;0.40;0.40;;;25.10;77.90;;;;;;5052640;28;20443;-73
2023/08/04 10:23:52;;;;;;;0.30;0.30;;;24.30;79.60;;;;;;5053123;28;20493;-72
2023/08/04 10:26:18;;;;;;;0.30;0.30;;;23.30;79.60;;;;;;5053088;28;20428;-71
2023/08/04 10:29:04;;;;;;;0.40;0.40;;;22.80;83.80;;;;;;5052929;28;20416;-72
2023/08/04 10:31:46;;;;;;;0.30;0.30;;;22.70;83.90;;;;;;5051992;28;20629;-73
2023/08/04 10:34:37;;;;;;;0.40;0.40;;;23.40;87.90;;;;;;5052862;28;20404;-71
2023/08/04 10:37:06;;;;;;;2.43;0.50;;;24.70;80.40;;;;;;5053001;28;20387;-73
2023/08/04 10:39:35;;;;;;;0.30;0.30;;;26.50;74.50;;;;;;5052814;28;20379;-73
2023/08/04 10:42:24;;;;;;;0.30;0.30;;;26.50;75.10;;;;;;5052600;28;20864;-74
2023/08/04 10:44:52;;;;;;;0.40;0.40;;;27.10;70.10;;;;;;5052621;28;20448;-73
2023/08/04 10:47:51;;;;;;;0.40;0.40;;;26.50;68.90;;;;;;5052945;28;20400;-73
2023/08/04 10:50:17;;;;;;;0.30;0.30;;;25.10;69.80;;;;;;5052347;28;20902;-73
2023/08/04 10:52:44;;;;;;;0.40;0.40;;;25.20;73.50;;;;;;5052725;28;20405;-73
2023/08/04 10:55:12;;;;;;;0.50;0.40;;;25.00;72.10;;;;;;5053102;28;20492;-73
2023/08/04 10:57:39;;;;;;;0.40;0.40;;;24.20;73.70;;;;;;5056040;28;20740;-73
2023/08/04 11:00:10;;;;;;;0.30;0.30;;;23.80;76.50;;;;;;5056322;28;20519;-71
2023/08/04 11:02:36;;;;;;;0.50;0.40;;;22.80;77.80;;;;;;5056231;28;20393;-73
2023/08/04 11:05:05;;;;;;;0.50;0.50;;;22.10;81.60;;;;;;5056282;28;20376;-73
2023/08/04 11:07:31;;;;;;;0.30;0.30;;;21.40;83.10;;;;;;5056128;28;20412;-72
2023/08/04 11:10:04;;;;;;;0.40;0.40;;;21.40;83.80;;;;;;5056130;28;20438;-72
2023/08/04 11:12:31;;;;;;;0.30;0.30;;;21.10;86.70;;;;;;5056052;28;20888;-73
2023/08/04 11:14:59;;;;;;;0.30;0.30;;;20.70;86.10;;;;;;5056090;28;20448;-73
2023/08/04 11:17:24;;;;;;;0.30;0.30;;;20.30;99.90;;;;;;5056108;28;20545;-73
2023/08/04 11:19:50;;;;;;;0.40;0.30;;;20.50;85.50;;;;;;5056076;28;20451;-71
2023/08/04 11:22:25;;;;;;;0.30;0.30;;;20.50;85.80;;;;;;5055749;28;20539;-72
2023/08/04 11:24:52;;;;;;;0.30;0.30;;;20.30;86.50;;;;;;5056041;28;20412;-71
2023/08/04 11:27:19;;;;;;;0.40;0.40;;;20.20;89.60;;;;;;5055791;28;20416;-73
2023/08/04 11:29:44;;;;;;;0.30;0.30;;;20.30;90.90;;;;;;5055798;28;20562;-72
2023/08/04 11:32:20;;;;;;;0.40;0.40;;;20.20;90.90;;;;;;5055597;28;20882;-73
2023/08/04 11:34:45;;;;;;;0.40;0.40;;;20.10;90.60;;;;;;5055890;28;20178;-72
2023/08/04 11:37:11;;;;;;;0.40;0.40;;;20.00;99.90;;;;;;5055657;28;20400;-73
2023/08/04 11:39:40;;;;;;;0.30;0.30;;;20.20;99.90;;;;;;5055579;28;20652;-72
2023/08/04 11:42:10;;;;;;;0.30;0.30;;;20.00;90.30;;;;;;5055810;28;20232;-72
2023/08/04 11:44:36;;;;;;;0.30;0.30;;;20.10;90.70;;;;;;5055560;28;20413;-72
2023/08/04 11:47:05;;;;;;;0.40;0.40;;;20.20;90.10;;;;;;5055628;28;20752;-72
2023/08/04 11:49:31;;;;;;;0.50;0.50;;;20.00;99.90;;;;;;5055340;28;20432;-71
2023/08/04 11:51:58;;;;;;;0.30;0.30;;;20.30;90.40;;;;;;5055320;28;20449;-72
2023/08/04 11:54:24;;;;;;;0.30;0.30;;;20.40;90.20;;;;;;5055576;28;20576;-72
2023/08/04 11:56:58;;;;;;;0.30;0.30;;;20.60;88.10;;;;;;5055441;28;20891;-72
2023/08/04 11:59:24;;;;;;;0.40;0.30;;;;;;;;;;5055345;28;20413;-73
2023/08/04 12:01:50;;;;;;;0.30;0.30;;;21.70;91.40;;;;;;5055004;28;20416;-73
2023/08/04 12:04:24;;;;;;;0.30;0.30;;;21.90;89.90;;;;;;5055302;28;20412;-72
2023/08/04 12:07:04;;;;;;;0.30;0.30;;;22.50;87.60;;;;;;5054889;28;20412;-73
2023/08/04 12:09:30;;;;;;;0.30;0.30;;;23.20;96.80;;;;;;5055302;28;20498;-72
2023/08/04 12:11:56;;;;;;;0.47;0.47;;;;;;;;;;5054731;28;20427;-72
2023/08/04 12:14:23;;;;;;;0.40;0.40;;;23.20;79.00;;;;;;5055050;28;20401;-71
2023/08/04 12:17:00;;;;;;;0.40;0.40;;;23.20;79.70;;;;;;5055144;28;20405;-72
2023/08/04 12:19:28;;;;;;;0.40;0.40;;;22.80;95.70;;;;;;5054954;28;20767;-71
2023/08/04 12:22:00;;;;;;;0.40;0.40;;;23.00;79.90;;;;;;5054603;28;20409;-73
2023/08/04 12:24:26;;;;;;;0.30;0.30;;;23.20;81.80;;;;;;5054970;28;20439;-71
2023/08/04 12:26:52;;;;;;;0.30;0.30;;;23.40;82.90;;;;;;5054623;28;20487;-73
2023/08/04 12:29:18;;;;;;;0.30;0.30;;;23.30;79.20;;;;;;5054683;28;20469;-71
2023/08/04 12:31:43;;;;;;;0.30;0.30;;;23.20;79.50;;;;;;5054323;28;20205;-72
2023/08/04 12:34:10;;;;;;;0.37;0.37;;;23.50;99.10;;;;;;5054783;28;20627;-73
2023/08/04 12:36:36;;;;;;;0.33;0.30;;;23.40;79.00;;;;;;5054548;28;20170;-72
2023/08/04 12:39:05;;;;;;;0.50;0.50;;;23.50;78.50;;;;;;5054575;28;20457;-72
2023/08/04 12:41:35;;;;;;;0.40;0.40;;;23.40;78.40;;;;;;5054349;28;20944;-73
2023/08/04 12:44:01;;;;;;;0.40;0.40;;;23.40;78.10;;;;;;5054952;28;20383;-73
2023/08/04 12:46:27;;;;;;;0.30;0.30;;;23.70;77.90;;;;;;5054494;28;20420;-73
2023/08/04 12:48:53;;;;;;;0.40;0.40;;;24.00;81.00;;;;;;5054301;28;20186;-73
2023/08/04 12:51:20;;;;;;;0.57;0.47;;;24.00;77.70;;;;;;5053969;28;20460;-74